Time;durP1;ratioP1;P1;durP2;ratioP2;P2;SDS_P1;SDS_P2;PMS_P1;PMS_P2;Temp;Humidity;BMP_temperature;BMP_pressure;BME280_temperature;BME280_humidity;BME280_pressure;Samples;Min_cycle;Max_cycle;Signal;HPM_P1;HPM_P2
2022/09/25 00:00:31;;;;;;;5.88;3.83;;;;;;;;;;4975862;28;20273;-85
2022/09/25 00:02:56;;;;;;;;;;;;;;;;;;4990930;28;20088;-84
2022/09/25 00:05:22;;;;;;;6.30;4.00;;;;;;;;;;4989167;28;19968;-84
2022/09/25 00:07:47;;;;;;;6.22;3.92;;;;;;;;;;4974280;28;20368;-85
2022/09/25 00:10:12;;;;;;;5.78;3.60;;;;;;;;;;4975220;28;20026;-83
2022/09/25 00:12:38;;;;;;;6.13;3.75;;;;;;;;;;4989180;28;20065;-84
2022/09/25 00:15:04;;;;;;;6.00;3.95;;;;;;;;;;4979436;28;20129;-84
2022/09/25 00:17:30;;;;;;;5.75;3.97;;;;;;;;;;4965568;28;20432;-84
2022/09/25 00:19:55;;;;;;;5.70;4.00;;;;;;;;;;4976242;28;20126;-85
2022/09/25 00:22:22;;;;;;;8.48;3.75;;;;;;;;;;4989972;28;20454;-84
2022/09/25 00:24:48;;;;;;;5.57;3.95;;;;;;;;;;4992452;28;20134;-86
2022/09/25 00:27:14;;;;;;;6.95;3.67;;;;;;;;;;4976442;28;20113;-86
2022/09/25 00:29:40;;;;;;;5.22;3.40;;;;;;;;;;4989050;28;20041;-87
2022/09/25 00:32:06;;;;;;;5.65;4.00;;;;;;;;;;4989399;28;20037;-86
2022/09/25 00:34:32;;;;;;;6.88;3.88;;;;;;;;;;4964959;28;20088;-85
2022/09/25 00:36:57;;;;;;;5.43;3.70;;;;;;;;;;4988818;28;20497;-86
2022/09/25 00:39:24;;;;;;;6.00;3.58;;;;;;;;;;4984723;28;20037;-87
2022/09/25 00:41:50;;;;;;;5.30;3.83;;;;;;;;;;4974997;28;20084;-86
2022/09/25 00:44:56;;;;;;;6.82;3.67;;;;;;;;;;4977894;28;20867;-84
2022/09/25 00:47:44;;;;;;;7.30;4.00;;;;;;;;;;4988496;28;20069;-84
2022/09/25 00:50:33;;;;;;;4.80;3.53;;;;;;;;;;4979052;28;20315;-85
2022/09/25 00:53:04;;;;;;;6.75;3.83;;;;;;;;;;4974645;28;20539;-85
2022/09/25 00:55:31;;;;;;;7.75;4.88;;;;;;;;;;4982468;28;20121;-85
2022/09/25 00:57:58;;;;;;;5.15;3.35;;;;;;;;;;4972403;28;20041;-85
2022/09/25 01:00:23;;;;;;;7.28;4.40;;;;;;;;;;4973244;28;20061;-84
2022/09/25 01:02:52;;;;;;;5.70;3.53;;;;;;;;;;4973078;28;20088;-85
2022/09/25 01:05:20;;;;;;;5.93;3.58;;;;;;;;;;4971960;28;20066;-85
2022/09/25 01:07:47;;;;;;;5.72;3.75;;;;;;;;;;4972842;28;20037;-85
2022/09/25 01:10:14;;;;;;;4.93;3.40;;;;;;;;;;4988546;28;20088;-84
2022/09/25 01:12:42;;;;;;;5.87;3.47;;;;;;;;;;4971957;28;20505;-84
2022/09/25 01:15:11;;;;;;;7.35;3.70;;;;;;;;;;4976124;28;20292;-85
2022/09/25 01:18:01;;;;;;;5.13;3.45;;;;;;;;;;4987493;28;20030;-84
2022/09/25 01:20:59;;;;;;;5.75;3.53;;;;;;;;;;4987846;28;20041;-84
2022/09/25 01:23:51;;;;;;;5.80;3.45;;;;;;;;;;4971884;28;20034;-84
2022/09/25 01:26:19;;;;;;;4.53;3.17;;;;;;;;;;4983311;28;20038;-84
2022/09/25 01:28:52;;;;;;;6.60;3.47;;;;;;;;;;4987916;28;20548;-83
2022/09/25 01:31:31;;;;;;;6.57;3.88;;;;;;;;;;4988946;28;20038;-84
2022/09/25 01:33:59;;;;;;;5.15;3.22;;;;;;;;;;4974857;28;20080;-84
2022/09/25 01:36:28;;;;;;;5.70;3.38;;;;;;;;;;4970350;28;20116;-85
2022/09/25 01:38:58;;;;;;;4.55;3.13;;;;;;;;;;4967886;28;20416;-84
2022/09/25 01:41:34;;;;;;;7.28;3.63;;;;;;;;;;4968461;28;20045;-84
2022/09/25 01:44:12;;;;;;;5.97;3.45;;;;;;;;;;4964329;28;20042;-84
2022/09/25 01:46:43;;;;;;;5.10;3.22;;;;;;;;;;4970840;28;20030;-84
2022/09/25 01:49:18;;;;;;;4.68;3.15;;;;;;;;;;4975541;28;20524;-85
2022/09/25 01:51:49;;;;;;;5.10;3.30;;;;;;;;;;4972799;28;20116;-84
2022/09/25 01:54:19;;;;;;;4.88;3.30;;;;;;;;;;4973932;28;20704;-85
2022/09/25 01:57:01;;;;;;;15.27;9.07;;;;;;;;;;4990138;28;20121;-84
2022/09/25 01:59:44;;;;;;;5.85;3.95;;;;;;;;;;4978427;28;20509;-85
2022/09/25 02:02:14;;;;;;;6.50;3.80;;;;;;;;;;4990239;28;20121;-86
2022/09/25 02:04:51;;;;;;;5.10;3.50;;;;;;;;;;4985289;28;20172;-86
2022/09/25 02:07:21;;;;;;;5.63;3.70;;;;;;;;;;4970654;28;20049;-84
2022/09/25 02:09:50;;;;;;;6.45;3.67;;;;;;;;;;4997168;28;20037;-84
2022/09/25 02:12:22;;;;;;;5.57;3.35;;;;;;;;;;4992264;28;20049;-84
2022/09/25 02:14:53;;;;;;;5.13;3.50;;;;;;;;;;4985140;28;20113;-84
2022/09/25 02:20:30;;;;;;;6.10;3.97;;;;;;;;;;4986427;28;20036;-86
2022/09/25 02:22:58;;;;;;;5.32;3.40;;;;;;;;;;4965224;28;20046;-85
2022/09/25 02:25:41;;;;;;;6.68;4.10;;;;;;;;;;4988717;28;20048;-85
2022/09/25 02:28:07;;;;;;;5.65;3.85;;;;;;;;;;4971577;28;20041;-84
2022/09/25 02:30:32;;;;;;;5.68;3.80;;;;;;;;;;4974764;28;20041;-84
2022/09/25 02:32:58;;;;;;;5.97;4.03;;;;;;;;;;4992653;28;20375;-85
2022/09/25 02:35:24;;;;;;;5.78;4.00;;;;;;;;;;4973345;28;20120;-84
2022/09/25 02:37:51;;;;;;;5.03;3.80;;;;;;;;;;4970661;28;20050;-82
2022/09/25 02:40:17;;;;;;;5.43;3.80;;;;;;;;;;4972751;28;20075;-84
2022/09/25 02:42:49;;;;;;;5.68;4.07;;;;;;;;;;4965210;28;20029;-82
2022/09/25 02:45:38;;;;;;;7.72;4.30;;;;;;;;;;4967617;28;20088;-85
2022/09/25 02:48:20;;;;;;;6.70;4.30;;;;;;;;;;4973123;28;20045;-85
2022/09/25 02:51:06;;;;;;;4.93;3.55;;;;;;;;;;4975461;28;20041;-84
2022/09/25 02:53:42;;;;;;;5.55;3.80;;;;;;;;;;4981482;28;20134;-86
2022/09/25 02:56:17;;;;;;;6.05;4.53;;;;;;;;;;4970160;28;20077;-85
2022/09/25 02:58:51;;;;;;;8.40;4.68;;;;;;;;;;4972473;28;20046;-84
2022/09/25 03:01:19;;;;;;;6.68;4.55;;;;;;;;;;4989998;28;20933;-84
2022/09/25 03:03:48;;;;;;;;;;;;;;;;;;4971980;28;20031;-85
2022/09/25 03:06:36;;;;;;;7.50;4.28;;;;;;;;;;4989219;28;20053;-84
2022/09/25 03:09:03;;;;;;;6.32;4.28;;;;;;;;;;4927540;29;20048;-84
2022/09/25 03:11:28;;;;;;;6.97;4.60;;;;;;;;;;4889082;29;20051;-84
2022/09/25 03:13:57;;;;;;;6.47;4.30;;;;;;;;;;4914686;29;20493;-86
2022/09/25 03:16:30;;;;;;;6.82;4.20;;;;;;;;;;4900778;29;20042;-84
2022/09/25 03:18:55;;;;;;;6.75;4.70;;;;;;;;;;4926188;29;20086;-84
2022/09/25 03:21:21;;;;;;;8.43;5.00;;;;;;;;;;4894504;29;20047;-84
2022/09/25 03:24:06;;;;;;;6.40;4.53;;;;;;;;;;4902923;29;20051;-84
2022/09/25 03:26:32;;;;;;;6.03;4.38;;;;;;;;;;4850370;29;20486;-85
2022/09/25 03:29:01;;;;;;;7.03;4.35;;;;;;;;;;4853574;29;20054;-85
2022/09/25 03:31:28;;;;;;;6.68;4.53;;;;;;;;;;4842312;29;20046;-85
2022/09/25 03:33:54;;;;;;;6.55;3.83;;;;;;;;;;4829066;29;20162;-85
2022/09/25 03:36:22;;;;;;;7.10;4.20;;;;;;;;;;4847621;29;20133;-84
2022/09/25 03:38:52;;;;;;;6.38;4.38;;;;;;;;;;4860262;29;20060;-85
2022/09/25 03:41:20;;;;;;;6.00;4.10;;;;;;;;;;4855506;29;20605;-85
2022/09/25 03:43:50;;;;;;;5.88;4.15;;;;;;;;;;4834169;29;20049;-85
2022/09/25 03:46:16;;;;;;;5.68;4.20;;;;;;;;;;4885498;29;20491;-85
2022/09/25 03:48:41;;;;;;;5.72;4.65;;;;;;;;;;4898593;29;20128;-86
2022/09/25 03:51:07;;;;;;;6.18;4.80;;;;;;;;;;4910220;29;20142;-86
2022/09/25 03:53:33;;;;;;;7.03;4.20;;;;;;;;;;4904962;29;20039;-85
2022/09/25 03:56:07;;;;;;;6.38;4.65;;;;;;;;;;4899136;29;20044;-86
2022/09/25 03:58:33;;;;;;;7.00;4.63;;;;;;;;;;4922898;29;20047;-86
2022/09/25 04:01:00;;;;;;;6.40;4.53;;;;;;;;;;4889641;29;20040;-85
2022/09/25 04:03:27;;;;;;;6.63;4.38;;;;;;;;;;4950830;28;20030;-85
2022/09/25 04:05:54;;;;;;;6.53;4.45;;;;;;;;;;4974299;28;20038;-85
2022/09/25 04:08:21;;;;;;;6.20;4.35;;;;;;;;;;4992747;28;20146;-84
2022/09/25 04:10:47;;;;;;;8.90;4.57;;;;;;;;;;4973361;28;20030;-84
2022/09/25 04:13:12;;;;;;;7.03;4.43;;;;;;;;;;4973375;28;20037;-84
2022/09/25 04:15:39;;;;;;;7.10;5.40;;;;;;;;;;4960940;28;20433;-84
2022/09/25 04:18:05;;;;;;;7.05;4.97;;;;;;;;;;4972440;28;20543;-85
2022/09/25 04:20:30;;;;;;;7.22;5.15;;;;;;;;;;4965118;28;20505;-85
2022/09/25 04:22:55;;;;;;;6.43;4.53;;;;;;;;;;4988259;28;20038;-85
2022/09/25 04:25:24;;;;;;;8.52;5.00;;;;;;;;;;4971777;28;20046;-84
2022/09/25 04:27:54;;;;;;;7.10;4.97;;;;;;;;;;4985106;28;20041;-86
2022/09/25 04:30:23;;;;;;;6.65;4.60;;;;;;;;;;4984012;28;20034;-86
2022/09/25 04:35:33;;;;;;;6.85;5.07;;;;;;;;;;4988685;28;20437;-83
2022/09/25 04:37:59;;;;;;;6.32;4.70;;;;;;;;;;4982021;28;20042;-86
2022/09/25 04:40:25;;;;;;;7.68;4.97;;;;;;;;;;4980159;28;20094;-86
2022/09/25 04:42:57;;;;;;;8.15;5.35;;;;;;;;;;4975655;28;20088;-84
2022/09/25 04:45:22;;;;;;;8.68;5.25;;;;;;;;;;4977826;28;20046;-90
2022/09/25 04:47:48;;;;;;;7.40;5.22;;;;;;;;;;4990155;28;20038;-89
2022/09/25 04:50:13;;;;;;;7.30;5.00;;;;;;;;;;5003668;28;20037;-86
2022/09/25 04:52:39;;;;;;;8.88;5.10;;;;;;;;;;5004415;28;20034;-88
2022/09/25 04:55:05;;;;;;;6.20;4.63;;;;;;;;;;5006204;28;20052;-86
2022/09/25 04:57:30;;;;;;;7.75;5.28;;;;;;;;;;4987932;28;20023;-88
2022/09/25 04:59:56;;;;;;;7.47;4.97;;;;;;;;;;5006097;28;20030;-89
2022/09/25 05:02:26;;;;;;;7.82;5.20;;;;;;;;;;4979064;28;20054;-87
2022/09/25 05:04:52;;;;;;;9.38;5.30;;;;;;;;;;4997670;28;20802;-87
2022/09/25 05:07:17;;;;;;;8.10;5.53;;;;;;;;;;4984647;28;20125;-86
2022/09/25 05:09:42;;;;;;;7.93;5.28;;;;;;;;;;4969065;28;20057;-87
2022/09/25 05:12:07;;;;;;;8.55;5.28;;;;;;;;;;4986941;28;20042;-88
2022/09/25 05:14:35;;;;;;;8.07;5.35;;;;;;;;;;4994981;28;20030;-87
2022/09/25 05:17:01;;;;;;;6.75;5.03;;;;;;;;;;4989020;28;20223;-90
2022/09/25 05:19:26;;;;;;;7.18;5.40;;;;;;;;;;4976365;28;20053;-89
2022/09/25 05:21:52;;;;;;;7.50;4.75;;;;;;;;;;4989040;28;20038;-85
2022/09/25 05:24:18;;;;;;;6.78;4.85;;;;;;;;;;4969378;28;20041;-84
2022/09/25 05:26:43;;;;;;;9.52;6.18;;;;;;;;;;4968357;28;20044;-84
2022/09/25 05:29:09;;;;;;;8.60;5.60;;;;;;;;;;4970925;28;20516;-84
2022/09/25 05:31:35;;;;;;;8.02;5.80;;;;;;;;;;4972592;28;20502;-84
2022/09/25 05:34:01;;;;;;;7.60;5.25;;;;;;;;;;4973982;28;20041;-84
2022/09/25 05:36:27;;;;;;;8.45;5.75;;;;;;;;;;4960447;28;20033;-84
2022/09/25 05:38:53;;;;;;;9.10;5.90;;;;;;;;;;4958356;28;20103;-84
2022/09/25 05:41:18;;;;;;;7.82;5.88;;;;;;;;;;4978354;28;20128;-83
2022/09/25 05:43:46;;;;;;;10.43;5.95;;;;;;;;;;4972465;28;20090;-84
2022/09/25 05:46:11;;;;;;;;;;;;;;;;;;4973231;28;20038;-86
2022/09/25 05:48:37;;;;;;;8.77;5.50;;;;;;;;;;4993324;28;20431;-86
2022/09/25 05:51:03;;;;;;;7.70;5.88;;;;;;;;;;4957584;28;20049;-86
2022/09/25 05:53:31;;;;;;;7.75;5.28;;;;;;;;;;4987001;28;20053;-86
2022/09/25 05:56:02;;;;;;;8.05;5.05;;;;;;;;;;4971170;28;20062;-88
2022/09/25 05:58:29;;;;;;;7.82;5.00;;;;;;;;;;4959444;28;20054;-86
2022/09/25 06:00:58;;;;;;;7.50;5.47;;;;;;;;;;4961888;28;20121;-87
2022/09/25 06:03:24;;;;;;;8.38;6.05;;;;;;;;;;4968251;28;21011;-87
2022/09/25 06:05:50;;;;;;;8.13;5.97;;;;;;;;;;4959954;28;20042;-86
2022/09/25 06:08:15;;;;;;;8.10;5.70;;;;;;;;;;4952234;28;20085;-86
2022/09/25 06:11:01;;;;;;;6.60;5.30;;;;;;;;;;4985592;28;20038;-86
2022/09/25 06:13:30;;;;;;;8.60;5.68;;;;;;;;;;4889103;29;20078;-87
2022/09/25 06:15:55;;;;;;;9.25;5.72;;;;;;;;;;4874125;29;20036;-87
2022/09/25 06:18:22;;;;;;;9.70;6.32;;;;;;;;;;4890546;29;20398;-83
2022/09/25 06:21:02;;;;;;;6.82;5.28;;;;;;;;;;4889778;29;20659;-85
2022/09/25 06:23:28;;;;;;;7.72;5.30;;;;;;;;;;4875748;29;20032;-86
2022/09/25 06:25:53;;;;;;;7.68;5.10;;;;;;;;;;4885962;29;20040;-86
2022/09/25 06:28:18;;;;;;;8.55;5.45;;;;;;;;;;4878464;29;20040;-87
2022/09/25 06:30:44;;;;;;;7.10;5.13;;;;;;;;;;4863184;29;20104;-87
2022/09/25 06:33:11;;;;;;;7.95;5.60;;;;;;;;;;4887124;29;20079;-86
2022/09/25 06:35:44;;;;;;;8.10;5.63;;;;;;;;;;4875306;29;20413;-84
2022/09/25 06:38:10;;;;;;;9.38;5.80;;;;;;;;;;4880776;29;20072;-85
2022/09/25 06:40:39;;;;;;;8.63;5.75;;;;;;;;;;4884375;29;20058;-86
2022/09/25 06:43:05;;;;;;;8.13;5.97;;;;;;;;;;4871466;29;20428;-87
2022/09/25 06:45:32;;;;;;;8.23;5.47;;;;;;;;;;4888813;29;20044;-87
2022/09/25 06:48:04;;;;;;;9.17;6.27;;;;;;;;;;4900344;29;20141;-86
2022/09/25 06:50:39;;;;;;;9.85;6.00;;;;;;;;;;4922028;28;20092;-90
2022/09/25 06:53:04;;;;;;;8.82;6.22;;;;;;;;;;4995994;28;20104;-85
2022/09/25 06:55:33;;;;;;;8.50;5.90;;;;;;;;;;4988565;28;20065;-86
2022/09/25 06:57:59;;;;;;;9.68;6.05;;;;;;;;;;4988764;28;20042;-85
2022/09/25 07:00:25;;;;;;;8.88;6.05;;;;;;;;;;4975298;28;20036;-85
2022/09/25 07:05:37;;;;;;;7.80;5.90;;;;;;;;;;4976831;28;20046;-85
2022/09/25 07:08:23;;;;;;;8.55;6.10;;;;;;;;;;4981517;28;20042;-85
2022/09/25 07:10:50;;;;;;;8.98;6.20;;;;;;;;;;4893799;29;20503;-86
2022/09/25 07:13:17;;;;;;;9.73;6.05;;;;;;;;;;4879217;29;20043;-84
2022/09/25 07:15:43;;;;;;;9.80;6.63;;;;;;;;;;4894390;29;20043;-85
2022/09/25 07:18:29;;;;;;;8.18;6.13;;;;;;;;;;4878427;29;20056;-84
2022/09/25 07:21:06;;;;;;;10.43;6.35;;;;;;;;;;4815383;29;20047;-85
2022/09/25 07:23:32;;;;;;;8.05;5.88;;;;;;;;;;4802769;29;20050;-84
2022/09/25 07:26:07;;;;;;;8.50;6.10;;;;;;;;;;4804152;29;20050;-85
2022/09/25 07:28:34;;;;;;;9.40;6.05;;;;;;;;;;4819082;29;20041;-86
2022/09/25 07:31:22;;;;;;;8.52;6.00;;;;;;;;;;4803805;29;20106;-87
2022/09/25 07:33:47;;;;;;;9.25;6.47;;;;;;;;;;4789086;29;20102;-84
2022/09/25 07:36:14;;;;;;;8.93;6.10;;;;;;;;;;4818408;29;20046;-86
2022/09/25 07:38:40;;;;;;;10.02;6.57;;;;;;;;;;4805401;29;20038;-86
2022/09/25 07:41:07;;;;;;;8.77;6.03;;;;;;;;;;4802632;29;20088;-86
2022/09/25 07:43:33;;;;;;;9.77;6.17;;;;;;;;;;4803192;29;20038;-86
2022/09/25 07:45:59;;;;;;;8.52;6.32;;;;;;;;;;4804062;29;20878;-86
2022/09/25 07:48:25;;;;;;;8.75;6.32;;;;;;;;;;4861118;29;20127;-85
2022/09/25 07:50:51;;;;;;;9.43;5.95;;;;;;;;;;4886534;29;20040;-85
2022/09/25 07:53:19;;;;;;;7.93;5.75;;;;;;;;;;4898613;29;20107;-82
2022/09/25 07:55:45;;;;;;;9.73;6.63;;;;;;;;;;4886036;29;20544;-82
2022/09/25 07:58:41;;;;;;;9.55;7.10;;;;;;;;;;4953828;28;20567;-82
2022/09/25 08:02:03;;;;;;;;;;;;;;;;;;;;;
2022/09/25 08:05:00;;;;;;;9.50;6.55;;;;;;;;;;4944341;28;21473;-82
2022/09/25 08:07:52;;;;;;;14.70;9.80;;;;;;;;;;4977415;28;20052;-82
2022/09/25 08:10:35;;;;;;;8.80;6.13;;;;;;;;;;4974502;28;20625;-83
2022/09/25 08:13:07;;;;;;;9.32;6.40;;;;;;;;;;4968681;28;20048;-84
2022/09/25 08:15:39;;;;;;;8.55;6.13;;;;;;;;;;4933020;28;20039;-84
2022/09/25 08:18:08;;;;;;;8.63;5.47;;;;;;;;;;4935627;28;20073;-83
2022/09/25 08:20:38;;;;;;;8.27;5.82;;;;;;;;;;4965400;28;20034;-82
2022/09/25 08:23:32;;;;;;;8.35;5.80;;;;;;;;;;4960429;28;20041;-84
2022/09/25 08:26:41;;;;;;;8.10;5.75;;;;;;;;;;4989673;28;20502;-83
2022/09/25 08:29:15;;;;;;;8.35;5.90;;;;;;;;;;4978709;28;20500;-83
2022/09/25 08:32:19;;;;;;;8.65;5.80;;;;;;;;;;4939753;28;20505;-83
2022/09/25 08:34:54;;;;;;;8.90;6.00;;;;;;;;;;4982650;28;20037;-82
2022/09/25 08:37:22;;;;;;;8.10;6.25;;;;;;;;;;4977410;28;20022;-82
2022/09/25 08:39:48;;;;;;;9.90;6.25;;;;;;;;;;4967894;28;20048;-82
2022/09/25 08:43:04;;;;;;;;;;;;;;;;;;;;;
2022/09/25 08:51:10;;;;;;;8.80;6.25;;;;;;;;;;4981039;28;20041;-84
2022/09/25 08:53:37;;;;;;;8.02;5.97;;;;;;;;;;4977772;28;20073;-84
2022/09/25 08:56:16;;;;;;;9.87;6.07;;;;;;;;;;4988216;28;20041;-84
2022/09/25 08:58:55;;;;;;;8.95;6.20;;;;;;;;;;4979279;28;20292;-84
2022/09/25 09:01:24;;;;;;;8.48;6.00;;;;;;;;;;4984083;28;20030;-84
2022/09/25 09:04:04;;;;;;;7.97;5.70;;;;;;;;;;4969029;28;20046;-84
2022/09/25 09:06:30;;;;;;;8.20;6.15;;;;;;;;;;4975880;28;20065;-84
2022/09/25 09:09:09;;;;;;;7.75;5.57;;;;;;;;;;4994010;28;20034;-84
2022/09/25 09:11:38;;;;;;;8.15;5.53;;;;;;;;;;4986260;28;20493;-84
2022/09/25 09:14:05;;;;;;;8.02;5.55;;;;;;;;;;4963864;28;20505;-83
2022/09/25 09:16:44;;;;;;;8.95;5.85;;;;;;;;;;4987800;28;20060;-83
2022/09/25 09:19:10;;;;;;;8.63;5.70;;;;;;;;;;4969669;28;20072;-84
2022/09/25 09:22:07;;;;;;;8.60;5.88;;;;;;;;;;4963793;28;20502;-84
2022/09/25 09:24:51;;;;;;;7.32;5.63;;;;;;;;;;4947580;28;20119;-83
2022/09/25 09:27:58;;;;;;;8.93;6.07;;;;;;;;;;4987385;28;20149;-83
2022/09/25 09:31:11;;;;;;;7.78;5.70;;;;;;;;;;4944081;28;20395;-83
2022/09/25 09:33:58;;;;;;;9.07;6.32;;;;;;;;;;4985634;28;20447;-83
2022/09/25 09:36:29;;;;;;;8.70;5.87;;;;;;;;;;4988210;28;20030;-83
2022/09/25 09:39:21;;;;;;;8.95;5.95;;;;;;;;;;5001588;28;20042;-82
2022/09/25 09:42:10;;;;;;;8.65;5.57;;;;;;;;;;4963256;28;20042;-83
2022/09/25 09:44:36;;;;;;;7.22;5.45;;;;;;;;;;4983598;28;20409;-83
2022/09/25 09:47:04;;;;;;;7.90;5.78;;;;;;;;;;4996140;28;20034;-83
2022/09/25 09:49:41;;;;;;;8.85;6.00;;;;;;;;;;4989440;28;20030;-83
2022/09/25 09:52:24;;;;;;;8.57;5.68;;;;;;;;;;4999659;28;20501;-83
2022/09/25 09:54:58;;;;;;;7.60;5.70;;;;;;;;;;4973345;28;20042;-84
2022/09/25 09:57:26;;;;;;;8.32;5.65;;;;;;;;;;4972335;28;20038;-83
2022/09/25 10:00:06;;;;;;;8.23;5.78;;;;;;;;;;4988834;28;20038;-83
2022/09/25 10:02:43;;;;;;;7.97;5.65;;;;;;;;;;4984544;28;20438;-82
2022/09/25 10:05:24;;;;;;;;;;;;;;;;;;4979084;28;20081;-83
2022/09/25 10:07:50;;;;;;;7.93;5.60;;;;;;;;;;5002214;28;19967;-82
2022/09/25 10:10:17;;;;;;;8.25;5.68;;;;;;;;;;4981111;28;20436;-81
2022/09/25 10:12:46;;;;;;;8.43;4.97;;;;;;;;;;4965179;28;20049;-80
2022/09/25 10:15:20;;;;;;;7.05;5.28;;;;;;;;;;4987928;28;20050;-86
2022/09/25 10:17:45;;;;;;;7.40;5.00;;;;;;;;;;4979026;28;20106;-82
2022/09/25 10:20:18;;;;;;;6.72;4.60;;;;;;;;;;4989088;28;20147;-82
2022/09/25 10:22:51;;;;;;;7.80;4.80;;;;;;;;;;4969416;28;20088;-84
2022/09/25 10:25:37;;;;;;;7.50;5.38;;;;;;;;;;4969238;28;20038;-83
2022/09/25 10:28:31;;;;;;;7.35;5.03;;;;;;;;;;4978297;28;20042;-82
2022/09/25 10:30:59;;;;;;;7.10;5.10;;;;;;;;;;4972022;28;20030;-83
2022/09/25 10:33:27;;;;;;;7.88;5.40;;;;;;;;;;5003453;28;20128;-82
2022/09/25 10:35:53;;;;;;;6.95;4.75;;;;;;;;;;4963810;28;20069;-82
2022/09/25 10:38:28;;;;;;;7.20;5.40;;;;;;;;;;4999600;28;20439;-82
2022/09/25 10:41:11;;;;;;;7.78;4.93;;;;;;;;;;4981022;28;20084;-82
2022/09/25 10:44:00;;;;;;;7.75;5.10;;;;;;;;;;4969974;28;20034;-83
2022/09/25 10:52:21;;;;;;;10.80;5.00;;;;;;;;;;4988774;28;20049;-82
2022/09/25 10:54:46;;;;;;;8.48;5.43;;;;;;;;;;4996098;28;20386;-82
2022/09/25 10:57:33;;;;;;;8.68;5.63;;;;;;;;;;4945712;28;20049;-83
2022/09/25 11:00:00;;;;;;;7.15;5.15;;;;;;;;;;5005372;28;20042;-83
2022/09/25 11:02:40;;;;;;;6.93;5.18;;;;;;;;;;4984692;28;20030;-83
2022/09/25 11:05:14;;;;;;;6.88;4.80;;;;;;;;;;5000273;28;20456;-83
2022/09/25 11:07:51;;;;;;;7.30;5.03;;;;;;;;;;4980424;28;20042;-83
2022/09/25 11:10:36;;;;;;;7.27;4.87;;;;;;;;;;4967482;28;20064;-83
2022/09/25 11:13:15;;;;;;;8.48;4.80;;;;;;;;;;4995989;28;20282;-83
2022/09/25 11:15:47;;;;;;;6.40;4.45;;;;;;;;;;4969371;28;20485;-82
2022/09/25 11:18:37;;;;;;;7.13;4.68;;;;;;;;;;4981947;28;20514;-82
2022/09/25 11:21:35;;;;;;;7.68;5.30;;;;;;;;;;4972507;28;20039;-81
2022/09/25 11:24:19;;;;;;;6.85;4.93;;;;;;;;;;4984701;28;20041;-82
2022/09/25 11:26:56;;;;;;;7.72;5.10;;;;;;;;;;4999462;28;20038;-81
2022/09/25 11:29:48;;;;;;;6.93;4.63;;;;;;;;;;4952415;28;20549;-81
2022/09/25 11:32:19;;;;;;;6.75;5.07;;;;;;;;;;4973798;28;20088;-82
2022/09/25 11:35:11;;;;;;;7.22;4.93;;;;;;;;;;4983054;28;20030;-83
2022/09/25 11:37:49;;;;;;;6.95;4.80;;;;;;;;;;4980751;28;20363;-80
2022/09/25 11:43:25;;;;;;;6.22;4.30;;;;;;;;;;4985066;28;20383;-82
2022/09/25 11:45:58;;;;;;;6.75;4.25;;;;;;;;;;4987893;28;20041;-83
2022/09/25 11:48:51;;;;;;;6.32;4.20;;;;;;;;;;4993053;28;20067;-82
2022/09/25 11:51:39;;;;;;;7.28;4.78;;;;;;;;;;4962581;28;20482;-81
2022/09/25 11:54:23;;;;;;;6.32;4.18;;;;;;;;;;4990158;28;20404;-81
2022/09/25 11:57:14;;;;;;;6.75;4.05;;;;;;;;;;4982585;28;20121;-81
2022/09/25 12:00:04;;;;;;;6.25;4.20;;;;;;;;;;4970766;28;20030;-81
2022/09/25 12:03:07;;;;;;;4.97;3.72;;;;;;;;;;4987627;28;20387;-81
2022/09/25 12:06:01;;;;;;;6.97;4.07;;;;;;;;;;4992904;28;20167;-81
2022/09/25 12:08:43;;;;;;;5.35;3.60;;;;;;;;;;4894153;29;20591;-81
2022/09/25 12:11:11;;;;;;;6.45;3.95;;;;;;;;;;4904090;29;20518;-81
2022/09/25 12:14:01;;;;;;;6.15;3.50;;;;;;;;;;4912128;29;20043;-81
2022/09/25 12:16:39;;;;;;;5.75;3.92;;;;;;;;;;4912162;29;20036;-80
2022/09/25 12:19:27;;;;;;;5.60;3.75;;;;;;;;;;4913202;29;20098;-81
2022/09/25 12:22:07;;;;;;;6.93;3.92;;;;;;;;;;4910359;29;20047;-81
2022/09/25 12:24:47;;;;;;;6.43;4.00;;;;;;;;;;4886640;29;20115;-81
2022/09/25 12:27:34;;;;;;;5.80;3.83;;;;;;;;;;4912858;29;20036;-83
2022/09/25 12:30:20;;;;;;;6.00;3.88;;;;;;;;;;4926184;29;20050;-81
2022/09/25 12:33:04;;;;;;;5.78;3.90;;;;;;;;;;4903567;29;20050;-84
2022/09/25 12:36:02;;;;;;;6.05;3.28;;;;;;;;;;4926509;29;20036;-82
2022/09/25 12:38:49;;;;;;;4.47;3.25;;;;;;;;;;4911741;29;20495;-82
2022/09/25 12:41:28;;;;;;;5.53;3.55;;;;;;;;;;4915042;29;20415;-81
2022/09/25 12:44:03;;;;;;;5.15;3.25;;;;;;;;;;4930459;29;20044;-82
2022/09/25 12:46:49;;;;;;;4.90;3.20;;;;;;;;;;4975541;28;20505;-83
2022/09/25 12:49:42;;;;;;;4.63;3.13;;;;;;;;;;4913960;29;20035;-82
2022/09/25 12:52:18;;;;;;;6.57;4.05;;;;;;;;;;4926829;29;20584;-82
2022/09/25 12:54:59;;;;;;;5.20;3.70;;;;;;;;;;4917178;29;20503;-82
2022/09/25 12:57:31;;;;;;;5.30;3.20;;;;;;;;;;4922713;29;20042;-83
2022/09/25 13:00:08;;;;;;;5.25;3.60;;;;;;;;;;4932236;29;20042;-82
2022/09/25 13:02:46;;;;;;;5.35;3.50;;;;;;;;;;4917345;28;20098;-81
2022/09/25 13:05:17;;;;;;;5.55;3.40;;;;;;;;;;4927188;29;20043;-82
2022/09/25 13:07:54;;;;;;;5.18;3.30;;;;;;;;;;4929757;29;20071;-82
2022/09/25 13:10:35;;;;;;;6.15;3.90;;;;;;;;;;4913461;29;20046;-82
2022/09/25 13:13:04;;;;;;;4.75;3.47;;;;;;;;;;4927249;29;20411;-82
2022/09/25 13:15:34;;;;;;;5.50;3.60;;;;;;;;;;4931953;28;20943;-82
2022/09/25 13:18:00;;;;;;;5.18;3.63;;;;;;;;;;4932114;29;20032;-82
2022/09/25 13:20:32;;;;;;;6.80;4.07;;;;;;;;;;4911963;29;20417;-82
2022/09/25 13:23:28;;;;;;;6.00;3.78;;;;;;;;;;4916855;29;20558;-82
2022/09/25 13:25:59;;;;;;;5.95;4.00;;;;;;;;;;4912962;28;20046;-82
2022/09/25 13:28:32;;;;;;;6.18;3.83;;;;;;;;;;4991738;28;20577;-82
2022/09/25 13:31:02;;;;;;;4.85;3.28;;;;;;;;;;4988989;28;20100;-82
2022/09/25 13:33:36;;;;;;;5.45;3.75;;;;;;;;;;4995660;28;20041;-82
2022/09/25 13:36:06;;;;;;;6.00;3.70;;;;;;;;;;4974265;28;20475;-82
2022/09/25 13:41:25;;;;;;;4.70;3.60;;;;;;;;;;4992603;28;20177;-82
2022/09/25 13:44:30;;;;;;;4.75;3.45;;;;;;;;;;4972909;28;20538;-82
2022/09/25 13:47:24;;;;;;;6.13;3.72;;;;;;;;;;5002661;28;20067;-82
2022/09/25 13:50:04;;;;;;;6.15;4.13;;;;;;;;;;4995553;28;20041;-82
2022/09/25 13:52:35;;;;;;;5.20;3.70;;;;;;;;;;4986875;28;20026;-82
2022/09/25 13:55:13;;;;;;;5.85;4.00;;;;;;;;;;4982666;28;20041;-82
2022/09/25 13:57:57;;;;;;;5.72;4.03;;;;;;;;;;4982960;28;20061;-82
2022/09/25 14:00:32;;;;;;;6.03;4.13;;;;;;;;;;5019526;28;20030;-82
2022/09/25 14:03:01;;;;;;;5.60;4.03;;;;;;;;;;4994945;28;20038;-82
2022/09/25 14:05:36;;;;;;;5.68;3.83;;;;;;;;;;4977377;28;20054;-82
2022/09/25 14:08:15;;;;;;;5.88;3.88;;;;;;;;;;4966284;28;20093;-82
2022/09/25 14:10:46;;;;;;;5.90;4.03;;;;;;;;;;4994579;28;20036;-81
2022/09/25 14:13:13;;;;;;;5.63;3.85;;;;;;;;;;5005032;28;20044;-82
2022/09/25 14:15:39;;;;;;;5.40;3.90;;;;;;;;;;4974771;28;20034;-83
2022/09/25 14:18:15;;;;;;;5.10;3.80;;;;;;;;;;4982051;28;20494;-83
2022/09/25 14:20:45;;;;;;;5.90;4.38;;;;;;;;;;4961203;28;20034;-82
2022/09/25 14:23:19;;;;;;;6.15;4.20;;;;;;;;;;4976551;28;20042;-82
2022/09/25 14:25:46;;;;;;;5.75;3.70;;;;;;;;;;4988524;28;20045;-82
2022/09/25 14:28:20;;;;;;;6.13;4.13;;;;;;;;;;4978006;28;20050;-82
2022/09/25 14:30:58;;;;;;;6.55;4.65;;;;;;;;;;4986209;28;20033;-82
2022/09/25 14:33:46;;;;;;;6.63;4.55;;;;;;;;;;4972541;28;20038;-83
2022/09/25 14:36:53;;;;;;;6.57;4.43;;;;;;;;;;4993722;28;20049;-82
2022/09/25 14:39:47;;;;;;;7.50;5.18;;;;;;;;;;5004186;28;20038;-82
2022/09/25 14:42:23;;;;;;;6.22;4.65;;;;;;;;;;4997919;28;20035;-82
2022/09/25 14:45:22;;;;;;;6.70;4.68;;;;;;;;;;5004105;28;20057;-82
2022/09/25 14:47:50;;;;;;;6.95;4.88;;;;;;;;;;5004372;28;20057;-82
2022/09/25 14:50:26;;;;;;;6.55;4.65;;;;;;;;;;4974291;28;20034;-82
2022/09/25 14:52:56;;;;;;;5.88;4.15;;;;;;;;;;4977956;28;20496;-82
2022/09/25 14:55:25;;;;;;;7.72;4.63;;;;;;;;;;4986579;28;20129;-82
2022/09/25 14:58:15;;;;;;;6.05;4.25;;;;;;;;;;4983078;28;20117;-82
2022/09/25 15:00:53;;;;;;;6.32;4.50;;;;;;;;;;4964507;28;20580;-83
2022/09/25 15:03:25;;;;;;;6.38;4.07;;;;;;;;;;4965702;28;20104;-82
2022/09/25 15:05:51;;;;;;;6.05;4.10;;;;;;;;;;4969099;28;20046;-82
2022/09/25 15:08:42;;;;;;;5.75;3.58;;;;;;;;;;4980051;28;20042;-83
2022/09/25 15:11:16;;;;;;;5.93;4.05;;;;;;;;;;5006276;28;20501;-82
2022/09/25 15:13:42;;;;;;;8.93;4.70;;;;;;;;;;4978642;28;20077;-81
2022/09/25 15:19:13;;;;;;;7.35;4.57;;;;;;;;;;4988082;28;20056;-81
2022/09/25 15:21:41;;;;;;;6.75;4.60;;;;;;;;;;4984725;28;20508;-82
2022/09/25 15:24:14;;;;;;;6.03;4.32;;;;;;;;;;4994049;28;20512;-83
2022/09/25 15:26:50;;;;;;;6.95;4.15;;;;;;;;;;4993478;28;20030;-82
2022/09/25 15:29:19;;;;;;;5.53;3.90;;;;;;;;;;4985992;28;20041;-82
2022/09/25 15:31:49;;;;;;;6.35;3.72;;;;;;;;;;4991217;28;20045;-83
2022/09/25 15:34:22;;;;;;;5.55;3.90;;;;;;;;;;4974603;28;20114;-83
2022/09/25 15:36:52;;;;;;;5.88;3.90;;;;;;;;;;4964685;28;20093;-83
2022/09/25 15:39:23;;;;;;;6.97;4.38;;;;;;;;;;4977587;28;20084;-84
2022/09/25 15:41:49;;;;;;;6.22;4.03;;;;;;;;;;4978220;28;20456;-83
2022/09/25 15:44:25;;;;;;;6.25;4.20;;;;;;;;;;4991744;28;20042;-84
2022/09/25 15:46:53;;;;;;;6.78;4.68;;;;;;;;;;4970158;28;20509;-80
2022/09/25 15:49:28;;;;;;;5.85;3.88;;;;;;;;;;4988811;28;20084;-82
2022/09/25 15:52:18;;;;;;;5.70;4.15;;;;;;;;;;4960190;28;20045;-83
2022/09/25 15:54:45;;;;;;;5.78;4.03;;;;;;;;;;4980704;28;20176;-83